sensor_id;sensor_type;location;lat;lon;timestamp;temperature;humidity
42245;DHT22;27912;51.828;5.688;2023-07-13T00:02:14;15.50;99.90
42245;DHT22;27912;51.828;5.688;2023-07-13T00:04:40;15.50;99.90
42245;DHT22;27912;51.828;5.688;2023-07-13T00:07:07;15.50;99.90
42245;DHT22;27912;51.828;5.688;2023-07-13T00:09:33;15.40;99.90
42245;DHT22;27912;51.828;5.688;2023-07-13T00:11:59;15.40;99.90
42245;DHT22;27912;51.828;5.688;2023-07-13T00:14:26;15.40;99.90
42245;DHT22;27912;51.828;5.688;2023-07-13T00:16:52;15.30;99.90
42245;DHT22;27912;51.828;5.688;2023-07-13T00:19:18;15.30;99.90
42245;DHT22;27912;51.828;5.688;2023-07-13T00:21:44;15.30;99.90
42245;DHT22;27912;51.828;5.688;2023-07-13T00:24:12;15.30;99.90
42245;DHT22;27912;51.828;5.688;2023-07-13T00:26:39;15.30;99.90
42245;DHT22;27912;51.828;5.688;2023-07-13T00:29:05;15.30;99.90
42245;DHT22;27912;51.828;5.688;2023-07-13T00:31:34;15.30;99.90
42245;DHT22;27912;51.828;5.688;2023-07-13T00:34:00;15.20;99.90
42245;DHT22;27912;51.828;5.688;2023-07-13T00:36:26;15.20;99.90
42245;DHT22;27912;51.828;5.688;2023-07-13T00:38:52;15.20;99.90
42245;DHT22;27912;51.828;5.688;2023-07-13T00:41:18;15.20;99.90
42245;DHT22;27912;51.828;5.688;2023-07-13T00:43:44;15.10;99.90
42245;DHT22;27912;51.828;5.688;2023-07-13T00:46:33;15.10;99.90
42245;DHT22;27912;51.828;5.688;2023-07-13T00:49:02;15.00;99.90
42245;DHT22;27912;51.828;5.688;2023-07-13T00:51:40;15.00;99.90
42245;DHT22;27912;51.828;5.688;2023-07-13T00:54:10;14.90;99.90
42245;DHT22;27912;51.828;5.688;2023-07-13T00:56:39;14.90;99.90
42245;DHT22;27912;51.828;5.688;2023-07-13T00:59:07;14.80;99.90
42245;DHT22;27912;51.828;5.688;2023-07-13T01:01:34;14.80;99.90
42245;DHT22;27912;51.828;5.688;2023-07-13T01:03:59;14.70;99.90
42245;DHT22;27912;51.828;5.688;2023-07-13T01:06:25;14.70;99.90
42245;DHT22;27912;51.828;5.688;2023-07-13T01:08:51;14.70;99.90
42245;DHT22;27912;51.828;5.688;2023-07-13T01:11:21;14.70;99.90
42245;DHT22;27912;51.828;5.688;2023-07-13T01:13:48;14.70;99.90
42245;DHT22;27912;51.828;5.688;2023-07-13T01:16:27;14.70;99.90
42245;DHT22;27912;51.828;5.688;2023-07-13T01:18:55;14.70;99.90
42245;DHT22;27912;51.828;5.688;2023-07-13T01:21:24;14.70;99.90
42245;DHT22;27912;51.828;5.688;2023-07-13T01:23:50;14.70;99.90
42245;DHT22;27912;51.828;5.688;2023-07-13T01:26:15;14.70;99.90
42245;DHT22;27912;51.828;5.688;2023-07-13T01:28:41;14.60;99.90
42245;DHT22;27912;51.828;5.688;2023-07-13T01:31:07;14.60;99.90
42245;DHT22;27912;51.828;5.688;2023-07-13T01:33:34;14.60;99.90
42245;DHT22;27912;51.828;5.688;2023-07-13T01:36:00;14.50;99.90
42245;DHT22;27912;51.828;5.688;2023-07-13T01:38:27;14.50;99.90
42245;DHT22;27912;51.828;5.688;2023-07-13T01:40:53;14.50;99.90
42245;DHT22;27912;51.828;5.688;2023-07-13T01:43:19;14.50;99.90
42245;DHT22;27912;51.828;5.688;2023-07-13T01:45:46;14.40;99.90
42245;DHT22;27912;51.828;5.688;2023-07-13T01:48:12;14.40;99.90
42245;DHT22;27912;51.828;5.688;2023-07-13T01:50:37;14.40;99.90
42245;DHT22;27912;51.828;5.688;2023-07-13T01:53:03;14.40;99.90
42245;DHT22;27912;51.828;5.688;2023-07-13T01:55:29;14.40;99.90
42245;DHT22;27912;51.828;5.688;2023-07-13T01:57:56;14.40;99.90
42245;DHT22;27912;51.828;5.688;2023-07-13T02:00:21;14.40;99.90
42245;DHT22;27912;51.828;5.688;2023-07-13T02:02:47;14.40;99.90
42245;DHT22;27912;51.828;5.688;2023-07-13T02:05:13;14.40;99.90
42245;DHT22;27912;51.828;5.688;2023-07-13T02:07:39;14.30;99.90
42245;DHT22;27912;51.828;5.688;2023-07-13T02:10:06;14.30;99.90
42245;DHT22;27912;51.828;5.688;2023-07-13T02:12:33;14.30;99.90
42245;DHT22;27912;51.828;5.688;2023-07-13T02:14:58;14.30;99.90
42245;DHT22;27912;51.828;5.688;2023-07-13T02:17:25;14.30;99.90
42245;DHT22;27912;51.828;5.688;2023-07-13T02:19:51;14.30;99.90
42245;DHT22;27912;51.828;5.688;2023-07-13T02:22:16;14.20;99.90
42245;DHT22;27912;51.828;5.688;2023-07-13T02:24:42;14.20;99.90
42245;DHT22;27912;51.828;5.688;2023-07-13T02:27:07;14.20;99.90
42245;DHT22;27912;51.828;5.688;2023-07-13T02:29:33;14.20;99.90
42245;DHT22;27912;51.828;5.688;2023-07-13T02:31:58;14.20;99.90
42245;DHT22;27912;51.828;5.688;2023-07-13T02:34:24;14.10;99.90
42245;DHT22;27912;51.828;5.688;2023-07-13T02:36:50;14.10;99.90
42245;DHT22;27912;51.828;5.688;2023-07-13T02:39:15;14.10;99.90
42245;DHT22;27912;51.828;5.688;2023-07-13T02:41:41;14.10;99.90
42245;DHT22;27912;51.828;5.688;2023-07-13T02:44:06;14.10;99.90
42245;DHT22;27912;51.828;5.688;2023-07-13T02:46:36;14.00;99.90
42245;DHT22;27912;51.828;5.688;2023-07-13T02:49:03;14.00;99.90
42245;DHT22;27912;51.828;5.688;2023-07-13T02:51:29;14.00;99.90
42245;DHT22;27912;51.828;5.688;2023-07-13T02:53:55;14.00;99.90
42245;DHT22;27912;51.828;5.688;2023-07-13T02:56:26;14.00;99.90
42245;DHT22;27912;51.828;5.688;2023-07-13T02:58:52;14.00;99.90
42245;DHT22;27912;51.828;5.688;2023-07-13T03:01:18;14.00;99.90
42245;DHT22;27912;51.828;5.688;2023-07-13T03:03:45;14.00;99.90
42245;DHT22;27912;51.828;5.688;2023-07-13T03:06:11;13.90;99.90
42245;DHT22;27912;51.828;5.688;2023-07-13T03:08:37;13.90;99.90
42245;DHT22;27912;51.828;5.688;2023-07-13T03:11:05;13.90;99.90
42245;DHT22;27912;51.828;5.688;2023-07-13T03:13:31;13.90;99.90
42245;DHT22;27912;51.828;5.688;2023-07-13T03:15:56;13.80;99.90
42245;DHT22;27912;51.828;5.688;2023-07-13T03:18:22;13.80;99.90
42245;DHT22;27912;51.828;5.688;2023-07-13T03:20:50;13.80;99.90
42245;DHT22;27912;51.828;5.688;2023-07-13T03:23:16;13.80;99.90
42245;DHT22;27912;51.828;5.688;2023-07-13T03:25:42;13.80;99.90
42245;DHT22;27912;51.828;5.688;2023-07-13T03:28:08;13.90;99.90
42245;DHT22;27912;51.828;5.688;2023-07-13T03:30:33;13.80;99.90
42245;DHT22;27912;51.828;5.688;2023-07-13T03:32:59;13.80;99.90
42245;DHT22;27912;51.828;5.688;2023-07-13T03:35:24;13.80;99.90
42245;DHT22;27912;51.828;5.688;2023-07-13T03:37:50;13.80;99.90
42245;DHT22;27912;51.828;5.688;2023-07-13T03:40:16;13.80;99.90
42245;DHT22;27912;51.828;5.688;2023-07-13T03:42:42;13.80;99.90
42245;DHT22;27912;51.828;5.688;2023-07-13T03:45:08;13.80;99.90
42245;DHT22;27912;51.828;5.688;2023-07-13T03:47:34;13.80;99.90
42245;DHT22;27912;51.828;5.688;2023-07-13T03:49:59;13.80;99.90
42245;DHT22;27912;51.828;5.688;2023-07-13T03:52:25;13.80;99.90
42245;DHT22;27912;51.828;5.688;2023-07-13T03:54:50;13.80;99.90
42245;DHT22;27912;51.828;5.688;2023-07-13T03:57:16;13.80;99.90
42245;DHT22;27912;51.828;5.688;2023-07-13T03:59:41;13.80;99.90
42245;DHT22;27912;51.828;5.688;2023-07-13T04:02:07;13.80;99.90
42245;DHT22;27912;51.828;5.688;2023-07-13T04:04:33;13.90;99.90
42245;DHT22;27912;51.828;5.688;2023-07-13T04:06:58;13.80;99.90
42245;DHT22;27912;51.828;5.688;2023-07-13T04:09:25;13.90;99.90
42245;DHT22;27912;51.828;5.688;2023-07-13T04:11:50;13.90;99.90
42245;DHT22;27912;51.828;5.688;2023-07-13T04:14:16;13.90;99.90
42245;DHT22;27912;51.828;5.688;2023-07-13T04:16:43;13.90;99.90
42245;DHT22;27912;51.828;5.688;2023-07-13T04:19:09;13.90;99.90
42245;DHT22;27912;51.828;5.688;2023-07-13T04:21:36;14.00;99.90
42245;DHT22;27912;51.828;5.688;2023-07-13T04:24:02;14.00;99.90
42245;DHT22;27912;51.828;5.688;2023-07-13T04:26:28;14.00;99.90
42245;DHT22;27912;51.828;5.688;2023-07-13T04:28:54;14.00;99.90
42245;DHT22;27912;51.828;5.688;2023-07-13T04:31:20;14.10;99.90
42245;DHT22;27912;51.828;5.688;2023-07-13T04:33:47;14.10;99.90
42245;DHT22;27912;51.828;5.688;2023-07-13T04:36:12;14.10;99.90
42245;DHT22;27912;51.828;5.688;2023-07-13T04:38:38;14.10;99.90
42245;DHT22;27912;51.828;5.688;2023-07-13T04:41:06;14.20;99.90
42245;DHT22;27912;51.828;5.688;2023-07-13T04:43:33;14.20;99.90
42245;DHT22;27912;51.828;5.688;2023-07-13T04:46:04;14.30;99.90
42245;DHT22;27912;51.828;5.688;2023-07-13T04:48:31;14.30;99.90
42245;DHT22;27912;51.828;5.688;2023-07-13T04:50:57;14.40;99.90
42245;DHT22;27912;51.828;5.688;2023-07-13T04:53:24;14.40;99.90
42245;DHT22;27912;51.828;5.688;2023-07-13T04:55:50;14.40;99.90
42245;DHT22;27912;51.828;5.688;2023-07-13T04:58:16;14.50;99.90
42245;DHT22;27912;51.828;5.688;2023-07-13T05:00:42;14.60;99.90
42245;DHT22;27912;51.828;5.688;2023-07-13T05:03:07;14.70;99.90
42245;DHT22;27912;51.828;5.688;2023-07-13T05:05:33;14.70;99.90
42245;DHT22;27912;51.828;5.688;2023-07-13T05:07:59;14.80;99.90
42245;DHT22;27912;51.828;5.688;2023-07-13T05:10:25;14.90;99.90
42245;DHT22;27912;51.828;5.688;2023-07-13T05:12:51;15.00;99.90
42245;DHT22;27912;51.828;5.688;2023-07-13T05:15:16;15.10;99.90
42245;DHT22;27912;51.828;5.688;2023-07-13T05:17:47;15.10;99.90
42245;DHT22;27912;51.828;5.688;2023-07-13T05:20:12;15.30;99.90
42245;DHT22;27912;51.828;5.688;2023-07-13T05:22:38;15.30;99.90
42245;DHT22;27912;51.828;5.688;2023-07-13T05:25:07;15.40;99.90
42245;DHT22;27912;51.828;5.688;2023-07-13T05:27:34;15.50;99.90
42245;DHT22;27912;51.828;5.688;2023-07-13T05:30:01;15.50;99.90
42245;DHT22;27912;51.828;5.688;2023-07-13T05:32:27;15.60;99.90
42245;DHT22;27912;51.828;5.688;2023-07-13T05:34:52;15.70;99.90
42245;DHT22;27912;51.828;5.688;2023-07-13T05:37:18;15.80;99.90
42245;DHT22;27912;51.828;5.688;2023-07-13T05:39:44;15.90;99.90
42245;DHT22;27912;51.828;5.688;2023-07-13T05:42:09;16.00;99.90
42245;DHT22;27912;51.828;5.688;2023-07-13T05:44:35;16.10;99.90
42245;DHT22;27912;51.828;5.688;2023-07-13T05:47:01;16.10;99.90
42245;DHT22;27912;51.828;5.688;2023-07-13T05:49:27;16.30;99.90
42245;DHT22;27912;51.828;5.688;2023-07-13T05:51:52;16.30;99.90
42245;DHT22;27912;51.828;5.688;2023-07-13T05:54:18;16.40;99.90
42245;DHT22;27912;51.828;5.688;2023-07-13T05:56:44;16.40;99.90
42245;DHT22;27912;51.828;5.688;2023-07-13T05:59:09;16.50;99.90
42245;DHT22;27912;51.828;5.688;2023-07-13T06:01:35;16.70;99.90
42245;DHT22;27912;51.828;5.688;2023-07-13T06:04:01;16.90;99.90
42245;DHT22;27912;51.828;5.688;2023-07-13T06:06:27;17.10;99.90
42245;DHT22;27912;51.828;5.688;2023-07-13T06:08:52;17.20;99.90
42245;DHT22;27912;51.828;5.688;2023-07-13T06:11:23;17.40;99.90
42245;DHT22;27912;51.828;5.688;2023-07-13T06:13:50;17.70;99.90
42245;DHT22;27912;51.828;5.688;2023-07-13T06:16:16;17.80;99.90
42245;DHT22;27912;51.828;5.688;2023-07-13T06:18:42;18.00;99.90
42245;DHT22;27912;51.828;5.688;2023-07-13T06:21:11;18.10;99.90
42245;DHT22;27912;51.828;5.688;2023-07-13T06:23:37;18.20;99.90
42245;DHT22;27912;51.828;5.688;2023-07-13T06:26:04;18.30;99.90
42245;DHT22;27912;51.828;5.688;2023-07-13T06:28:31;18.30;99.90
42245;DHT22;27912;51.828;5.688;2023-07-13T06:30:57;18.40;99.90
42245;DHT22;27912;51.828;5.688;2023-07-13T06:33:23;18.40;99.90
42245;DHT22;27912;51.828;5.688;2023-07-13T06:35:49;18.40;99.90
42245;DHT22;27912;51.828;5.688;2023-07-13T06:38:14;18.40;99.90
42245;DHT22;27912;51.828;5.688;2023-07-13T06:40:41;18.30;99.90
42245;DHT22;27912;51.828;5.688;2023-07-13T06:43:07;18.30;99.90
42245;DHT22;27912;51.828;5.688;2023-07-13T06:45:41;18.30;99.90
42245;DHT22;27912;51.828;5.688;2023-07-13T06:48:07;18.50;99.90
42245;DHT22;27912;51.828;5.688;2023-07-13T06:50:33;18.60;99.90
42245;DHT22;27912;51.828;5.688;2023-07-13T06:52:59;18.70;99.90
42245;DHT22;27912;51.828;5.688;2023-07-13T06:55:25;18.80;99.90
42245;DHT22;27912;51.828;5.688;2023-07-13T06:57:51;18.90;99.90
42245;DHT22;27912;51.828;5.688;2023-07-13T07:00:17;19.00;99.90
42245;DHT22;27912;51.828;5.688;2023-07-13T07:02:42;19.10;99.90
42245;DHT22;27912;51.828;5.688;2023-07-13T07:05:08;19.20;99.90
42245;DHT22;27912;51.828;5.688;2023-07-13T07:07:34;19.20;99.90
42245;DHT22;27912;51.828;5.688;2023-07-13T07:09:59;19.30;99.90
42245;DHT22;27912;51.828;5.688;2023-07-13T07:12:25;19.20;99.90
42245;DHT22;27912;51.828;5.688;2023-07-13T07:14:50;19.30;99.90
42245;DHT22;27912;51.828;5.688;2023-07-13T07:17:16;19.20;99.90
42245;DHT22;27912;51.828;5.688;2023-07-13T07:19:42;19.20;99.90
42245;DHT22;27912;51.828;5.688;2023-07-13T07:22:07;19.10;99.90
42245;DHT22;27912;51.828;5.688;2023-07-13T07:24:33;19.20;99.90
42245;DHT22;27912;51.828;5.688;2023-07-13T07:26:59;19.30;99.90
42245;DHT22;27912;51.828;5.688;2023-07-13T07:29:25;19.40;99.90
42245;DHT22;27912;51.828;5.688;2023-07-13T07:31:52;19.40;99.90
42245;DHT22;27912;51.828;5.688;2023-07-13T07:34:18;19.40;99.90
42245;DHT22;27912;51.828;5.688;2023-07-13T07:36:43;19.50;99.90
42245;DHT22;27912;51.828;5.688;2023-07-13T07:39:09;19.40;99.90
42245;DHT22;27912;51.828;5.688;2023-07-13T07:41:35;19.40;99.90
42245;DHT22;27912;51.828;5.688;2023-07-13T07:44:00;19.40;99.90
42245;DHT22;27912;51.828;5.688;2023-07-13T07:46:26;19.50;99.90
42245;DHT22;27912;51.828;5.688;2023-07-13T07:48:51;19.50;99.90
42245;DHT22;27912;51.828;5.688;2023-07-13T07:51:17;19.50;99.90
42245;DHT22;27912;51.828;5.688;2023-07-13T07:53:43;19.60;99.90
42245;DHT22;27912;51.828;5.688;2023-07-13T07:56:08;19.60;99.90
42245;DHT22;27912;51.828;5.688;2023-07-13T07:58:35;19.60;99.90
42245;DHT22;27912;51.828;5.688;2023-07-13T08:01:06;19.70;99.90
42245;DHT22;27912;51.828;5.688;2023-07-13T08:03:32;19.60;99.90
42245;DHT22;27912;51.828;5.688;2023-07-13T08:05:58;19.60;99.90
42245;DHT22;27912;51.828;5.688;2023-07-13T08:08:24;19.60;99.90
42245;DHT22;27912;51.828;5.688;2023-07-13T08:10:49;19.80;99.90
42245;DHT22;27912;51.828;5.688;2023-07-13T08:13:15;19.90;99.90
42245;DHT22;27912;51.828;5.688;2023-07-13T08:15:41;20.10;99.90
42245;DHT22;27912;51.828;5.688;2023-07-13T08:18:06;20.20;99.90
42245;DHT22;27912;51.828;5.688;2023-07-13T08:20:40;20.20;99.90
42245;DHT22;27912;51.828;5.688;2023-07-13T08:23:06;20.40;99.90
42245;DHT22;27912;51.828;5.688;2023-07-13T08:25:32;20.50;99.90
42245;DHT22;27912;51.828;5.688;2023-07-13T08:27:57;20.60;99.90
42245;DHT22;27912;51.828;5.688;2023-07-13T08:30:23;20.80;99.90
42245;DHT22;27912;51.828;5.688;2023-07-13T08:32:49;21.00;99.90
42245;DHT22;27912;51.828;5.688;2023-07-13T08:35:15;21.10;99.90
42245;DHT22;27912;51.828;5.688;2023-07-13T08:37:41;21.20;99.90
42245;DHT22;27912;51.828;5.688;2023-07-13T08:40:10;21.40;99.90
42245;DHT22;27912;51.828;5.688;2023-07-13T08:42:40;21.50;99.90
42245;DHT22;27912;51.828;5.688;2023-07-13T08:45:38;21.60;99.90
42245;DHT22;27912;51.828;5.688;2023-07-13T08:48:26;21.60;99.90
42245;DHT22;27912;51.828;5.688;2023-07-13T08:53:23;21.60;99.90
42245;DHT22;27912;51.828;5.688;2023-07-13T08:55:58;21.70;99.90
42245;DHT22;27912;51.828;5.688;2023-07-13T08:58:25;21.80;99.90
42245;DHT22;27912;51.828;5.688;2023-07-13T09:04:18;22.10;99.90
42245;DHT22;27912;51.828;5.688;2023-07-13T09:12:19;22.30;99.90
42245;DHT22;27912;51.828;5.688;2023-07-13T09:14:53;22.40;99.90
42245;DHT22;27912;51.828;5.688;2023-07-13T09:17:40;22.40;99.90
42245;DHT22;27912;51.828;5.688;2023-07-13T09:22:56;21.90;99.90
42245;DHT22;27912;51.828;5.688;2023-07-13T09:25:33;21.50;99.90
42245;DHT22;27912;51.828;5.688;2023-07-13T09:28:14;21.20;99.90
42245;DHT22;27912;51.828;5.688;2023-07-13T09:30:45;21.00;99.90
42245;DHT22;27912;51.828;5.688;2023-07-13T09:33:13;20.80;99.90
42245;DHT22;27912;51.828;5.688;2023-07-13T09:35:39;20.70;99.90
42245;DHT22;27912;51.828;5.688;2023-07-13T09:38:17;20.60;99.90
42245;DHT22;27912;51.828;5.688;2023-07-13T09:43:28;20.80;99.90
42245;DHT22;27912;51.828;5.688;2023-07-13T09:45:55;20.70;99.90
42245;DHT22;27912;51.828;5.688;2023-07-13T09:48:21;20.60;99.90
42245;DHT22;27912;51.828;5.688;2023-07-13T09:50:47;20.60;99.90
42245;DHT22;27912;51.828;5.688;2023-07-13T09:53:14;20.70;99.90
42245;DHT22;27912;51.828;5.688;2023-07-13T09:55:41;20.70;99.90
42245;DHT22;27912;51.828;5.688;2023-07-13T09:58:11;20.60;99.90
42245;DHT22;27912;51.828;5.688;2023-07-13T10:00:38;20.30;99.90
42245;DHT22;27912;51.828;5.688;2023-07-13T10:03:18;20.10;99.90
42245;DHT22;27912;51.828;5.688;2023-07-13T10:05:47;19.90;99.90
42245;DHT22;27912;51.828;5.688;2023-07-13T10:08:28;19.60;99.90
42245;DHT22;27912;51.828;5.688;2023-07-13T10:11:13;19.60;99.90
42245;DHT22;27912;51.828;5.688;2023-07-13T10:16:15;19.60;99.90
42245;DHT22;27912;51.828;5.688;2023-07-13T10:18:55;19.50;99.90
42245;DHT22;27912;51.828;5.688;2023-07-13T10:21:26;19.70;99.90
42245;DHT22;27912;51.828;5.688;2023-07-13T10:24:13;20.00;99.90
42245;DHT22;27912;51.828;5.688;2023-07-13T10:26:47;20.20;99.90
42245;DHT22;27912;51.828;5.688;2023-07-13T10:29:15;20.30;99.90
42245;DHT22;27912;51.828;5.688;2023-07-13T10:31:44;20.40;99.90
42245;DHT22;27912;51.828;5.688;2023-07-13T10:34:11;20.50;99.90
42245;DHT22;27912;51.828;5.688;2023-07-13T10:36:46;20.80;99.90
42245;DHT22;27912;51.828;5.688;2023-07-13T10:39:30;21.10;99.90
42245;DHT22;27912;51.828;5.688;2023-07-13T10:42:06;21.30;99.90
42245;DHT22;27912;51.828;5.688;2023-07-13T10:44:35;21.40;99.90
42245;DHT22;27912;51.828;5.688;2023-07-13T10:47:04;21.40;99.90
42245;DHT22;27912;51.828;5.688;2023-07-13T10:49:33;21.30;99.90
42245;DHT22;27912;51.828;5.688;2023-07-13T10:52:01;21.00;99.90
42245;DHT22;27912;51.828;5.688;2023-07-13T10:54:33;20.50;99.90
42245;DHT22;27912;51.828;5.688;2023-07-13T10:57:18;20.10;99.90
42245;DHT22;27912;51.828;5.688;2023-07-13T11:00:15;19.80;99.90
42245;DHT22;27912;51.828;5.688;2023-07-13T11:02:41;19.60;99.90
42245;DHT22;27912;51.828;5.688;2023-07-13T11:05:26;19.40;99.90
42245;DHT22;27912;51.828;5.688;2023-07-13T11:08:12;19.30;99.90
42245;DHT22;27912;51.828;5.688;2023-07-13T11:10:49;19.20;99.90
42245;DHT22;27912;51.828;5.688;2023-07-13T11:18:49;19.50;99.90
42245;DHT22;27912;51.828;5.688;2023-07-13T11:23:51;19.50;99.90
42245;DHT22;27912;51.828;5.688;2023-07-13T11:26:50;19.50;99.90
42245;DHT22;27912;51.828;5.688;2023-07-13T11:31:50;19.60;99.90
42245;DHT22;27912;51.828;5.688;2023-07-13T11:34:36;19.70;99.90
42245;DHT22;27912;51.828;5.688;2023-07-13T11:37:03;19.90;99.90
42245;DHT22;27912;51.828;5.688;2023-07-13T11:41:59;20.30;99.90
42245;DHT22;27912;51.828;5.688;2023-07-13T11:44:28;20.40;99.90
42245;DHT22;27912;51.828;5.688;2023-07-13T11:47:00;20.20;99.90
42245;DHT22;27912;51.828;5.688;2023-07-13T11:49:30;20.20;99.90
42245;DHT22;27912;51.828;5.688;2023-07-13T11:51:57;20.20;99.90
42245;DHT22;27912;51.828;5.688;2023-07-13T11:54:27;20.40;99.90
42245;DHT22;27912;51.828;5.688;2023-07-13T11:56:55;20.70;99.90
42245;DHT22;27912;51.828;5.688;2023-07-13T11:59:23;21.10;99.90
42245;DHT22;27912;51.828;5.688;2023-07-13T12:01:53;21.30;99.90
42245;DHT22;27912;51.828;5.688;2023-07-13T12:04:24;21.50;99.90
42245;DHT22;27912;51.828;5.688;2023-07-13T12:07:14;21.80;99.90
42245;DHT22;27912;51.828;5.688;2023-07-13T12:09:40;22.10;99.90
42245;DHT22;27912;51.828;5.688;2023-07-13T12:12:18;22.20;99.90
42245;DHT22;27912;51.828;5.688;2023-07-13T12:14:44;22.50;99.90
42245;DHT22;27912;51.828;5.688;2023-07-13T12:17:20;22.60;99.90
42245;DHT22;27912;51.828;5.688;2023-07-13T12:19:47;22.80;99.90
42245;DHT22;27912;51.828;5.688;2023-07-13T12:22:14;22.60;99.90
42245;DHT22;27912;51.828;5.688;2023-07-13T12:24:41;22.40;99.90
42245;DHT22;27912;51.828;5.688;2023-07-13T12:27:26;22.20;99.90
42245;DHT22;27912;51.828;5.688;2023-07-13T12:29:58;22.10;99.90
42245;DHT22;27912;51.828;5.688;2023-07-13T12:32:25;22.20;99.90
42245;DHT22;27912;51.828;5.688;2023-07-13T12:35:22;22.40;99.90
42245;DHT22;27912;51.828;5.688;2023-07-13T12:37:47;22.30;99.90
42245;DHT22;27912;51.828;5.688;2023-07-13T12:40:18;22.20;99.90
42245;DHT22;27912;51.828;5.688;2023-07-13T12:42:46;22.20;99.90
42245;DHT22;27912;51.828;5.688;2023-07-13T12:45:22;22.20;99.90
42245;DHT22;27912;51.828;5.688;2023-07-13T12:47:52;22.30;99.90
42245;DHT22;27912;51.828;5.688;2023-07-13T12:50:22;22.20;99.90
42245;DHT22;27912;51.828;5.688;2023-07-13T12:53:01;22.10;99.90
42245;DHT22;27912;51.828;5.688;2023-07-13T12:55:29;22.30;99.90
42245;DHT22;27912;51.828;5.688;2023-07-13T12:57:59;22.40;99.90
42245;DHT22;27912;51.828;5.688;2023-07-13T13:00:32;22.60;99.80
42245;DHT22;27912;51.828;5.688;2023-07-13T13:03:04;22.70;99.40
42245;DHT22;27912;51.828;5.688;2023-07-13T13:05:32;22.90;99.50
42245;DHT22;27912;51.828;5.688;2023-07-13T13:07:59;23.10;97.60
42245;DHT22;27912;51.828;5.688;2023-07-13T13:10:25;23.10;96.80
42245;DHT22;27912;51.828;5.688;2023-07-13T13:12:52;23.00;96.70
42245;DHT22;27912;51.828;5.688;2023-07-13T13:15:18;23.00;96.50
42245;DHT22;27912;51.828;5.688;2023-07-13T13:17:44;23.00;95.30
42245;DHT22;27912;51.828;5.688;2023-07-13T13:20:17;23.00;95.30
42245;DHT22;27912;51.828;5.688;2023-07-13T13:22:43;23.10;94.70
42245;DHT22;27912;51.828;5.688;2023-07-13T13:25:13;23.30;94.20
42245;DHT22;27912;51.828;5.688;2023-07-13T13:27:40;23.40;94.10
42245;DHT22;27912;51.828;5.688;2023-07-13T13:30:15;23.60;93.60
42245;DHT22;27912;51.828;5.688;2023-07-13T13:32:45;23.70;94.10
42245;DHT22;27912;51.828;5.688;2023-07-13T13:35:16;23.80;93.20
42245;DHT22;27912;51.828;5.688;2023-07-13T13:37:43;23.70;93.10
42245;DHT22;27912;51.828;5.688;2023-07-13T13:40:19;23.70;93.10
42245;DHT22;27912;51.828;5.688;2023-07-13T13:42:45;23.90;92.50
42245;DHT22;27912;51.828;5.688;2023-07-13T13:45:11;23.90;92.00
42245;DHT22;27912;51.828;5.688;2023-07-13T13:47:44;24.00;91.60
42245;DHT22;27912;51.828;5.688;2023-07-13T13:50:22;24.00;91.50
42245;DHT22;27912;51.828;5.688;2023-07-13T13:52:48;24.10;91.60
42245;DHT22;27912;51.828;5.688;2023-07-13T13:55:21;24.20;91.00
42245;DHT22;27912;51.828;5.688;2023-07-13T13:57:47;24.20;90.60
42245;DHT22;27912;51.828;5.688;2023-07-13T14:00:16;24.00;90.60
42245;DHT22;27912;51.828;5.688;2023-07-13T14:02:45;23.90;90.70
42245;DHT22;27912;51.828;5.688;2023-07-13T14:05:20;23.90;90.10
42245;DHT22;27912;51.828;5.688;2023-07-13T14:07:46;23.80;89.50
42245;DHT22;27912;51.828;5.688;2023-07-13T14:10:17;23.60;89.00
42245;DHT22;27912;51.828;5.688;2023-07-13T14:12:45;23.50;88.90
42245;DHT22;27912;51.828;5.688;2023-07-13T14:15:24;23.30;89.40
42245;DHT22;27912;51.828;5.688;2023-07-13T14:17:51;23.20;89.70
42245;DHT22;27912;51.828;5.688;2023-07-13T14:20:18;23.00;89.90
42245;DHT22;27912;51.828;5.688;2023-07-13T14:22:45;22.90;90.10
42245;DHT22;27912;51.828;5.688;2023-07-13T14:25:14;22.80;90.30
42245;DHT22;27912;51.828;5.688;2023-07-13T14:27:41;22.60;90.70
42245;DHT22;27912;51.828;5.688;2023-07-13T14:30:21;22.60;90.80
42245;DHT22;27912;51.828;5.688;2023-07-13T14:32:47;22.60;91.00
42245;DHT22;27912;51.828;5.688;2023-07-13T14:35:16;22.60;91.40
42245;DHT22;27912;51.828;5.688;2023-07-13T14:37:43;22.70;91.60
42245;DHT22;27912;51.828;5.688;2023-07-13T14:40:17;22.90;91.50
42245;DHT22;27912;51.828;5.688;2023-07-13T14:42:43;23.20;91.60
42245;DHT22;27912;51.828;5.688;2023-07-13T14:45:16;23.60;91.40
42245;DHT22;27912;51.828;5.688;2023-07-13T14:47:43;23.90;90.40
42245;DHT22;27912;51.828;5.688;2023-07-13T14:52:39;24.00;89.20
42245;DHT22;27912;51.828;5.688;2023-07-13T14:55:15;24.10;88.00
42245;DHT22;27912;51.828;5.688;2023-07-13T14:57:41;24.20;87.70
42245;DHT22;27912;51.828;5.688;2023-07-13T15:00:20;24.20;86.80
42245;DHT22;27912;51.828;5.688;2023-07-13T15:02:54;24.00;86.60
42245;DHT22;27912;51.828;5.688;2023-07-13T15:05:26;23.80;87.40
42245;DHT22;27912;51.828;5.688;2023-07-13T15:07:52;23.50;89.20
42245;DHT22;27912;51.828;5.688;2023-07-13T15:10:24;23.20;88.80
42245;DHT22;27912;51.828;5.688;2023-07-13T15:13:13;23.00;89.80
42245;DHT22;27912;51.828;5.688;2023-07-13T15:15:40;22.70;90.60
42245;DHT22;27912;51.828;5.688;2023-07-13T15:18:11;22.40;90.90
42245;DHT22;27912;51.828;5.688;2023-07-13T15:20:40;21.90;91.90
42245;DHT22;27912;51.828;5.688;2023-07-13T15:23:06;21.50;93.20
42245;DHT22;27912;51.828;5.688;2023-07-13T15:25:33;21.20;95.30
42245;DHT22;27912;51.828;5.688;2023-07-13T15:28:00;20.80;96.30
42245;DHT22;27912;51.828;5.688;2023-07-13T15:30:30;20.70;97.10
42245;DHT22;27912;51.828;5.688;2023-07-13T15:32:58;20.70;98.00
42245;DHT22;27912;51.828;5.688;2023-07-13T15:35:27;20.80;98.80
42245;DHT22;27912;51.828;5.688;2023-07-13T15:37:53;21.00;99.40
42245;DHT22;27912;51.828;5.688;2023-07-13T15:40:20;21.20;99.70
42245;DHT22;27912;51.828;5.688;2023-07-13T15:42:48;21.70;99.90
42245;DHT22;27912;51.828;5.688;2023-07-13T15:45:18;22.20;99.50
42245;DHT22;27912;51.828;5.688;2023-07-13T15:47:45;22.40;98.80
42245;DHT22;27912;51.828;5.688;2023-07-13T15:50:20;22.40;98.40
42245;DHT22;27912;51.828;5.688;2023-07-13T15:52:52;22.30;98.20
42245;DHT22;27912;51.828;5.688;2023-07-13T15:55:19;22.20;98.10
42245;DHT22;27912;51.828;5.688;2023-07-13T15:57:48;22.20;98.40
42245;DHT22;27912;51.828;5.688;2023-07-13T16:00:27;22.20;98.60
42245;DHT22;27912;51.828;5.688;2023-07-13T16:02:53;22.20;98.30
42245;DHT22;27912;51.828;5.688;2023-07-13T16:05:21;22.10;98.10
42245;DHT22;27912;51.828;5.688;2023-07-13T16:07:48;22.40;98.70
42245;DHT22;27912;51.828;5.688;2023-07-13T16:10:22;23.00;97.50
42245;DHT22;27912;51.828;5.688;2023-07-13T16:12:48;23.00;97.10
42245;DHT22;27912;51.828;5.688;2023-07-13T16:15:17;22.90;97.20